Terminal Aerodrome Forecast
Issued by NWS

Home | Current Version | Previous Version | Text Only | Print | Product List | Glossary On
Versions: 1 2 3 4 5 6 7 8 9 10 11 12 13 14
000
FTUS42 TJSJ 231100
TAFJMZ
TAF
TJMZ 231122Z 2312/2412 09004KT P6SM SCT030 SCT060
     FM231530 07010KT P6SM VCTS SCT022CB BKN040
      TEMPO 2317/2321 VRB12G20KT 3SM TSRA BKN025CB BKN050
     FM232300 07004KT P6SM SCT030 SCT060 SCT120=

USA.gov is the U.S. government's official web portal to all federal, state and local government web resources and services.